Terminal Aerodrome Forecast
Issued by NWS North Platte, NE

Home | Current Version | Previous Version | Graphics & Text | Print | Product List | Glossary On
Versions: 1 2 3 4 5 6 7 8 9 10 11 12 13 14
000
FTUS43 KLBF 020500
TAFVTN
TAF
KVTN 020520Z 0206/0306 VRB06KT P6SM BKN120
     FM020800 VRB05KT P6SM VCTS BKN100CB
     FM021300 32007KT P6SM BKN120
     FM022000 36008KT P6SM BKN100
     FM030100 VRB06KT P6SM SCT100=

USA.gov is the U.S. government's official web portal to all federal, state and local government web resources and services.